Hanapepe, Hawaii
Current Conditions -  °F | °C
As of 11:27 PM on Tuesday 21 Oct 2014 (Local Time) from PHBK Reporting Station
Broken Clouds Broken Clouds  
Wind Chill: 75°   Ceiling: 6500
Heat Index: 75°   Visibility: 10mi
Dew Point: 74°   Wind: 0mph
Humidity: 96%   Direction: NA
Pressure: 30"   Gusts: NA
Location:  21.9°N, 159.59°W
Report Text: PHBK 220927Z AUTO 00000KT 10SM FEW007 BKN065 24/23 A3000 RMK AO2 RAE00 P0000 T02390233
Loading
Personal Weather Stations






























Interactive Weather Map
Tropical Storm Tracking
New forecast layout! Learn more

10-Day Weather Forecast

Advertisements
Track Severe Weather on mobile